createdAt,value
2018-08-22T00:01:37.658Z,23.40
2018-08-22T00:05:10.917Z,23.40
2018-08-22T00:08:45.036Z,23.40
2018-08-22T00:12:18.250Z,23.40
2018-08-22T00:15:51.497Z,23.40
2018-08-22T00:19:24.744Z,23.30
2018-08-22T00:22:57.980Z,23.20
2018-08-22T00:26:31.215Z,23.10
2018-08-22T00:30:04.511Z,23.00
2018-08-22T00:33:37.740Z,22.90
2018-08-22T00:37:10.972Z,22.90
2018-08-22T00:40:44.216Z,22.90
2018-08-22T00:44:17.454Z,22.80
2018-08-22T00:47:50.688Z,22.80
2018-08-22T00:51:23.956Z,22.70
2018-08-22T00:54:57.176Z,22.60
2018-08-22T00:58:30.420Z,22.50
2018-08-22T01:02:03.652Z,22.50
2018-08-22T01:05:36.895Z,22.50
2018-08-22T01:09:10.147Z,22.50
2018-08-22T01:12:43.375Z,22.50
2018-08-22T01:16:16.607Z,22.50
2018-08-22T01:19:49.836Z,22.50
2018-08-22T01:23:23.092Z,22.50
2018-08-22T01:26:56.309Z,22.40
2018-08-22T01:30:29.560Z,22.40
2018-08-22T01:34:02.812Z,22.40
2018-08-22T01:37:36.052Z,22.30
2018-08-22T01:41:09.300Z,22.30
2018-08-22T01:44:42.648Z,22.20
2018-08-22T01:48:15.882Z,22.20
2018-08-22T01:51:49.136Z,22.20
2018-08-22T01:55:22.363Z,22.10
2018-08-22T01:58:55.682Z,22.10
2018-08-22T02:02:28.865Z,22.00
2018-08-22T02:06:02.106Z,22.00
2018-08-22T02:09:35.339Z,22.00
2018-08-22T02:13:08.572Z,21.90
2018-08-22T02:16:41.810Z,21.80
2018-08-22T02:20:15.039Z,21.80
2018-08-22T02:23:48.269Z,21.80
2018-08-22T02:27:21.521Z,21.80
2018-08-22T02:30:54.761Z,21.80
2018-08-22T02:34:27.993Z,21.80
2018-08-22T02:38:01.228Z,21.80
2018-08-22T02:41:34.460Z,21.90
2018-08-22T02:45:07.764Z,21.90
2018-08-22T02:48:46.549Z,21.90
2018-08-22T02:52:19.782Z,21.80
2018-08-22T02:55:53.029Z,21.80
2018-08-22T02:59:26.510Z,21.70
2018-08-22T03:02:59.764Z,21.70
2018-08-22T03:06:33.000Z,21.70
2018-08-22T03:10:06.274Z,21.60
2018-08-22T03:13:39.506Z,21.50
2018-08-22T03:17:12.763Z,21.40
2018-08-22T03:20:46.088Z,21.40
2018-08-22T03:24:19.341Z,21.30
2018-08-22T03:27:52.656Z,21.30
2018-08-22T03:31:25.886Z,21.30
2018-08-22T03:34:59.124Z,21.30
2018-08-22T03:38:32.368Z,21.30
2018-08-22T03:42:05.639Z,21.30
2018-08-22T03:45:38.879Z,21.30
2018-08-22T03:49:12.120Z,21.30
2018-08-22T03:52:45.373Z,21.40
2018-08-22T03:56:18.646Z,21.30
2018-08-22T03:59:51.894Z,21.30
2018-08-22T04:03:25.145Z,21.30
2018-08-22T04:06:58.382Z,21.30
2018-08-22T04:10:31.623Z,21.30
2018-08-22T04:14:04.864Z,21.20
2018-08-22T04:17:39.880Z,21.20
2018-08-22T04:21:13.120Z,21.10
2018-08-22T04:24:46.373Z,21.10
2018-08-22T04:28:19.612Z,21.10
2018-08-22T04:31:52.865Z,21.00
2018-08-22T04:35:26.116Z,21.00
2018-08-22T04:38:59.356Z,21.00
2018-08-22T04:42:32.699Z,20.90
2018-08-22T04:46:06.009Z,20.90
2018-08-22T04:49:39.315Z,20.90
2018-08-22T04:53:12.573Z,20.90
2018-08-22T04:56:46.077Z,20.90
2018-08-22T05:00:19.357Z,21.00
2018-08-22T05:03:52.633Z,21.00
2018-08-22T05:07:26.866Z,21.00
2018-08-22T05:11:00.547Z,21.00
2018-08-22T05:14:33.831Z,21.10
2018-08-22T05:18:07.225Z,21.20
2018-08-22T05:21:40.486Z,21.30
2018-08-22T05:25:13.717Z,21.40
2018-08-22T05:28:46.957Z,21.40
2018-08-22T05:32:20.189Z,21.40
2018-08-22T05:35:53.433Z,21.50
2018-08-22T05:39:26.652Z,21.50
2018-08-22T05:42:59.896Z,21.50
2018-08-22T05:46:33.115Z,21.50
2018-08-22T05:50:06.381Z,21.50
2018-08-22T05:53:39.643Z,21.60
2018-08-22T05:57:12.832Z,21.70
2018-08-22T06:00:46.073Z,21.80
2018-08-22T06:04:19.317Z,21.80
2018-08-22T06:07:52.614Z,21.90
2018-08-22T06:11:25.855Z,21.90
2018-08-22T06:14:59.196Z,22.00
2018-08-22T06:18:32.639Z,22.00
2018-08-22T06:22:06.073Z,22.10
2018-08-22T06:25:39.307Z,22.20
2018-08-22T06:29:12.528Z,22.30
2018-08-22T06:32:47.064Z,22.30
2018-08-22T06:36:20.365Z,22.50
2018-08-22T06:39:53.646Z,22.70
2018-08-22T06:43:26.895Z,23.10
2018-08-22T06:47:00.126Z,23.20
2018-08-22T06:50:33.343Z,23.30
2018-08-22T06:54:06.632Z,23.30
2018-08-22T06:57:39.883Z,23.40
2018-08-22T07:01:13.110Z,23.40
2018-08-22T07:04:46.321Z,23.50
2018-08-22T07:08:19.557Z,23.60
2018-08-22T07:11:52.772Z,23.70
2018-08-22T07:15:26.001Z,23.80
2018-08-22T07:18:59.216Z,23.90
2018-08-22T07:22:32.433Z,24.00
2018-08-22T07:26:05.698Z,24.20
2018-08-22T07:29:38.900Z,24.40
2018-08-22T07:33:12.172Z,24.60
2018-08-22T07:36:45.394Z,24.70
2018-08-22T07:40:18.604Z,24.90
2018-08-22T07:43:51.828Z,25.00
2018-08-22T07:47:25.048Z,25.10
2018-08-22T07:50:58.265Z,25.20
2018-08-22T07:54:39.689Z,25.20
2018-08-22T07:58:12.915Z,25.40
2018-08-22T08:01:46.157Z,25.60
2018-08-22T08:05:19.356Z,25.70
2018-08-22T08:08:52.565Z,25.80
2018-08-22T08:12:31.812Z,25.90
2018-08-22T08:16:05.029Z,26.00
2018-08-22T08:19:38.267Z,26.10
2018-08-22T08:23:11.492Z,26.20
2018-08-22T08:26:44.692Z,26.30
2018-08-22T08:30:17.927Z,26.50
2018-08-22T08:33:51.228Z,26.70
2018-08-22T08:37:24.495Z,26.80
2018-08-22T08:40:57.722Z,27.00
2018-08-22T08:44:30.931Z,27.20
2018-08-22T08:48:04.160Z,27.20
2018-08-22T08:51:47.468Z,27.30
2018-08-22T08:55:20.703Z,27.50
2018-08-22T08:58:53.928Z,27.60
2018-08-22T09:02:27.160Z,27.70
2018-08-22T09:06:00.388Z,27.80
2018-08-22T09:09:33.620Z,27.90
2018-08-22T09:13:08.480Z,28.00
2018-08-22T09:16:41.697Z,28.10
2018-08-22T09:20:14.917Z,28.30
2018-08-22T09:23:48.125Z,28.40
2018-08-22T09:27:21.367Z,28.50
2018-08-22T09:30:54.593Z,28.60
2018-08-22T09:34:27.811Z,28.70
2018-08-22T09:38:01.016Z,28.80
2018-08-22T09:41:34.228Z,28.90
2018-08-22T09:45:07.450Z,29.00
2018-08-22T09:48:40.664Z,29.10
2018-08-22T09:52:13.878Z,29.20
2018-08-22T09:55:47.099Z,29.30
2018-08-22T09:59:20.336Z,29.40
2018-08-22T10:02:53.564Z,29.60
2018-08-22T10:06:36.080Z,29.60
2018-08-22T10:10:09.232Z,29.60
2018-08-22T10:13:42.484Z,29.70
2018-08-22T10:17:15.739Z,29.80
2018-08-22T10:20:48.940Z,30.00
2018-08-22T10:24:22.146Z,30.10
2018-08-22T10:27:55.365Z,30.20
2018-08-22T10:31:28.575Z,30.30
2018-08-22T10:35:01.817Z,30.40
2018-08-22T10:38:35.097Z,30.30
2018-08-22T10:42:08.271Z,30.40
2018-08-22T10:45:41.480Z,30.50
2018-08-22T10:49:14.712Z,30.60
2018-08-22T10:52:47.930Z,30.70
2018-08-22T10:56:21.134Z,30.70
2018-08-22T10:59:54.361Z,30.70
2018-08-22T11:03:27.684Z,30.80
2018-08-22T11:07:00.926Z,30.80
2018-08-22T11:10:34.141Z,30.90
2018-08-22T11:14:07.535Z,30.90
2018-08-22T11:17:40.740Z,31.00
2018-08-22T11:21:25.175Z,31.10
2018-08-22T11:25:09.728Z,31.20
2018-08-22T11:28:54.089Z,31.30
2018-08-22T11:32:38.785Z,31.40
2018-08-22T11:36:11.017Z,31.60
2018-08-22T11:39:45.600Z,31.80
2018-08-22T11:43:18.824Z,32.00
2018-08-22T11:46:52.133Z,32.10
2018-08-22T11:50:25.271Z,32.20
2018-08-22T11:53:58.513Z,32.30
2018-08-22T11:57:31.765Z,32.50
2018-08-22T12:01:05.181Z,32.60
2018-08-22T12:04:38.404Z,32.70
2018-08-22T12:08:11.620Z,32.80
2018-08-22T12:11:44.852Z,32.90
2018-08-22T12:15:18.856Z,32.90
2018-08-22T12:18:52.093Z,32.90
2018-08-22T12:22:25.317Z,32.80
2018-08-22T12:25:58.538Z,32.80
2018-08-22T12:29:31.748Z,32.80
2018-08-22T12:33:05.027Z,32.70
2018-08-22T12:36:38.256Z,32.50
2018-08-22T12:40:11.468Z,32.40
2018-08-22T12:43:44.689Z,32.40
2018-08-22T12:47:17.900Z,32.50
2018-08-22T12:50:51.133Z,32.60
2018-08-22T12:54:24.364Z,32.60
2018-08-22T12:57:57.611Z,32.60
2018-08-22T13:01:30.841Z,32.60
2018-08-22T13:05:04.057Z,32.60
2018-08-22T13:08:37.296Z,32.40
2018-08-22T13:12:10.526Z,32.30
2018-08-22T13:15:43.742Z,32.30
2018-08-22T13:19:16.993Z,32.30
2018-08-22T13:22:50.204Z,32.50
2018-08-22T13:26:23.432Z,32.60
2018-08-22T13:29:56.648Z,32.60
2018-08-22T13:33:29.879Z,32.60
2018-08-22T13:37:03.101Z,32.70
2018-08-22T13:40:36.312Z,32.80
2018-08-22T13:44:09.749Z,32.90
2018-08-22T13:47:42.975Z,33.00
2018-08-22T13:51:16.202Z,33.10
2018-08-22T13:54:49.411Z,33.20
2018-08-22T13:58:22.723Z,33.30
2018-08-22T14:01:55.972Z,33.50
2018-08-22T14:05:29.220Z,33.70
2018-08-22T14:09:02.455Z,33.90
2018-08-22T14:12:35.678Z,34.00
2018-08-22T14:16:08.937Z,34.10
2018-08-22T14:19:42.148Z,33.90
2018-08-22T14:23:15.360Z,33.80
2018-08-22T14:26:48.593Z,33.70
2018-08-22T14:30:21.806Z,33.40
2018-08-22T14:33:55.032Z,33.10
2018-08-22T14:37:28.248Z,33.10
2018-08-22T14:41:01.460Z,33.30
2018-08-22T14:44:34.702Z,33.30
2018-08-22T14:48:08.015Z,33.10
2018-08-22T14:51:41.238Z,32.90
2018-08-22T14:55:14.494Z,32.90
2018-08-22T14:58:47.805Z,32.80
2018-08-22T15:02:21.112Z,32.60
2018-08-22T15:05:54.327Z,32.50
2018-08-22T15:09:27.539Z,32.50
2018-08-22T15:13:00.823Z,32.50
2018-08-22T15:16:34.010Z,32.60
2018-08-22T15:20:07.331Z,32.60
2018-08-22T15:23:40.561Z,32.50
2018-08-22T15:27:13.778Z,32.40
2018-08-22T15:30:46.993Z,32.30
2018-08-22T15:34:20.233Z,32.30
2018-08-22T15:37:53.480Z,32.30
2018-08-22T15:41:26.686Z,32.30
2018-08-22T15:44:59.935Z,32.70
2018-08-22T15:48:33.185Z,33.00
2018-08-22T15:52:06.405Z,33.20
2018-08-22T15:55:39.627Z,33.50
2018-08-22T15:59:13.300Z,33.70
2018-08-22T16:02:46.516Z,33.90
2018-08-22T16:06:19.728Z,34.10
2018-08-22T16:09:52.956Z,34.40
2018-08-22T16:13:30.615Z,34.70
2018-08-22T16:17:03.841Z,34.90
2018-08-22T16:20:44.952Z,34.90
2018-08-22T16:24:18.291Z,34.80
2018-08-22T16:27:51.797Z,34.50
2018-08-22T16:31:31.024Z,34.10
2018-08-22T16:35:04.257Z,33.80
2018-08-22T16:38:37.477Z,33.50
2018-08-22T16:42:11.062Z,33.30
2018-08-22T16:45:49.786Z,33.10
2018-08-22T16:49:23.046Z,32.90
2018-08-22T16:52:56.250Z,32.80
2018-08-22T16:56:30.728Z,32.70
2018-08-22T17:00:04.276Z,32.60
2018-08-22T17:03:37.512Z,32.60
2018-08-22T17:07:16.120Z,32.50
2018-08-22T17:10:53.572Z,32.40
2018-08-22T17:14:26.811Z,32.20
2018-08-22T17:18:00.024Z,32.00
2018-08-22T17:21:33.256Z,31.80
2018-08-22T17:25:07.000Z,31.60
2018-08-22T17:28:42.173Z,31.50
2018-08-22T17:32:15.381Z,31.40
2018-08-22T17:35:48.615Z,31.30
2018-08-22T17:39:22.040Z,31.20
2018-08-22T17:42:55.992Z,31.20
2018-08-22T17:46:30.640Z,31.20
2018-08-22T17:50:07.737Z,31.10
2018-08-22T17:53:41.004Z,31.00
2018-08-22T17:57:25.765Z,30.90
2018-08-22T18:00:59.164Z,30.80
2018-08-22T18:04:43.840Z,30.70
2018-08-22T18:08:17.089Z,30.60
2018-08-22T18:11:50.316Z,30.60
2018-08-22T18:15:23.548Z,30.50
2018-08-22T18:18:56.769Z,30.40
2018-08-22T18:22:31.977Z,30.30
2018-08-22T18:26:05.548Z,30.20
2018-08-22T18:29:40.489Z,30.20
2018-08-22T18:33:14.017Z,30.20
2018-08-22T18:36:47.297Z,30.10
2018-08-22T18:40:24.450Z,30.10
2018-08-22T18:43:57.690Z,30.00
2018-08-22T18:47:32.279Z,29.90
2018-08-22T18:51:05.547Z,29.80
2018-08-22T18:54:38.826Z,29.80
2018-08-22T18:58:12.064Z,29.70
2018-08-22T19:01:45.289Z,29.60
2018-08-22T19:05:22.489Z,29.50
2018-08-22T19:08:55.736Z,29.40
2018-08-22T19:12:28.957Z,29.40
2018-08-22T19:16:05.577Z,29.30
2018-08-22T19:19:43.256Z,29.30
2018-08-22T19:23:16.689Z,29.20
2018-08-22T19:26:49.900Z,29.10
2018-08-22T19:30:23.955Z,29.00
2018-08-22T19:33:57.197Z,28.90
2018-08-22T19:37:30.437Z,28.80
2018-08-22T19:41:19.668Z,28.70
2018-08-22T19:44:52.896Z,28.60
2018-08-22T19:48:26.140Z,28.50
2018-08-22T19:51:59.374Z,28.50
2018-08-22T19:55:33.339Z,28.40
2018-08-22T19:59:06.656Z,28.40
2018-08-22T20:02:39.907Z,28.40
2018-08-22T20:06:13.160Z,28.40
2018-08-22T20:09:46.416Z,28.30
2018-08-22T20:13:20.549Z,28.30
2018-08-22T20:16:53.810Z,28.30
2018-08-22T20:20:27.050Z,28.30
2018-08-22T20:24:01.243Z,28.30
2018-08-22T20:27:34.596Z,28.30
2018-08-22T20:31:11.945Z,28.20
2018-08-22T20:34:45.179Z,28.20
2018-08-22T20:38:18.416Z,28.00
2018-08-22T20:41:55.898Z,27.90
2018-08-22T20:45:37.440Z,27.90
2018-08-22T20:49:10.757Z,27.80
2018-08-22T20:52:44.044Z,27.70
2018-08-22T20:56:17.323Z,27.60
2018-08-22T20:59:50.650Z,27.50
2018-08-22T21:03:24.354Z,27.50
2018-08-22T21:06:57.812Z,27.50
2018-08-22T21:10:31.091Z,27.40
2018-08-22T21:14:04.337Z,27.30
2018-08-22T21:17:38.032Z,27.30
2018-08-22T21:21:16.631Z,27.30
2018-08-22T21:24:49.907Z,27.20
2018-08-22T21:28:25.720Z,27.20
2018-08-22T21:31:58.948Z,27.20
2018-08-22T21:35:32.191Z,27.10
2018-08-22T21:39:10.464Z,27.10
2018-08-22T21:42:44.148Z,27.00
2018-08-22T21:46:17.366Z,27.00
2018-08-22T21:49:50.601Z,27.00
2018-08-22T21:53:23.809Z,27.00
2018-08-22T21:56:57.023Z,27.00
2018-08-22T22:00:30.425Z,26.90
2018-08-22T22:04:03.662Z,26.90
2018-08-22T22:07:36.909Z,26.80
2018-08-22T22:11:10.120Z,26.80
2018-08-22T22:14:44.024Z,26.60
2018-08-22T22:18:17.254Z,26.50
2018-08-22T22:21:50.476Z,26.40
2018-08-22T22:25:23.732Z,26.40
2018-08-22T22:28:56.968Z,26.40
2018-08-22T22:32:30.615Z,26.30
2018-08-22T22:36:03.897Z,26.40
2018-08-22T22:39:45.473Z,26.40
2018-08-22T22:43:18.739Z,26.40
2018-08-22T22:46:51.980Z,26.30
2018-08-22T22:50:25.225Z,26.20
2018-08-22T22:53:58.447Z,26.10
2018-08-22T22:57:33.096Z,26.00
2018-08-22T23:01:07.005Z,26.00
2018-08-22T23:04:44.893Z,26.00
2018-08-22T23:08:18.140Z,25.90
2018-08-22T23:11:51.390Z,25.90
2018-08-22T23:15:26.248Z,25.90
2018-08-22T23:18:59.473Z,25.70
2018-08-22T23:22:32.691Z,25.60
2018-08-22T23:26:14.887Z,25.60
2018-08-22T23:29:48.160Z,25.50
2018-08-22T23:33:21.435Z,25.50
2018-08-22T23:36:54.671Z,25.50
2018-08-22T23:40:29.195Z,25.50
2018-08-22T23:44:02.443Z,25.40
2018-08-22T23:47:35.675Z,25.30
2018-08-22T23:51:11.347Z,25.20
2018-08-22T23:54:46.203Z,25.10
2018-08-22T23:58:19.439Z,25.00
